Time;durP1;ratioP1;P1;durP2;ratioP2;P2;SDS_P1;SDS_P2;PMS_P1;PMS_P2;Temp;Humidity;BMP_temperature;BMP_pressure;BME280_temperature;BME280_humidity;BME280_pressure;Samples;Min_cycle;Max_cycle;Signal;HPM_P1;HPM_P2
2021/06/07 00:04:31;;;;;;;0.00;0.00;;;;;;;14.97;89.86;102343.69;10497756;28;20022;-62
2021/06/07 00:09:31;;;;;;;0.10;0.10;;;;;;;14.94;89.89;102342.97;10520812;28;20474;-62
2021/06/07 00:14:34;;;;;;;0.10;0.10;;;;;;;14.92;90.16;102344.13;10516130;28;20028;-63
2021/06/07 00:19:38;;;;;;;0.10;0.10;;;;;;;14.91;90.47;102348.66;10512523;28;20035;-62
2021/06/07 00:24:38;;;;;;;;;;;;;;;14.91;90.46;102363.91;10522716;28;20008;-62
2021/06/07 00:29:38;;;;;;;0.10;0.10;;;;;;;14.89;90.53;102357.84;10509342;28;19909;-62
2021/06/07 00:34:39;;;;;;;0.10;0.10;;;;;;;14.86;90.48;102361.66;10515409;28;20019;-62
2021/06/07 00:39:39;;;;;;;0.10;0.10;;;;;;;14.88;90.67;102362.38;10515966;28;20054;-62
2021/06/07 00:44:40;;;;;;;0.10;0.10;;;;;;;14.89;90.56;102345.28;10521777;28;20024;-63
2021/06/07 00:49:41;;;;;;;0.10;0.10;;;;;;;14.91;90.72;102347.81;10532353;28;20020;-63
2021/06/07 00:54:41;;;;;;;0.10;0.10;;;;;;;14.94;90.73;102350.19;10515384;28;20013;-63
2021/06/07 00:59:42;;;;;;;0.10;0.10;;;;;;;14.94;90.53;102347.50;10519133;28;20028;-63
2021/06/07 01:04:42;;;;;;;0.10;0.10;;;;;;;14.92;90.60;102349.50;10517069;28;20016;-63
2021/06/07 01:09:42;;;;;;;0.08;0.08;;;;;;;14.91;90.62;102345.97;10528900;28;20028;-63
2021/06/07 01:14:42;;;;;;;0.10;0.10;;;;;;;14.93;90.99;102349.34;10525505;28;20020;-63
2021/06/07 01:19:43;;;;;;;0.10;0.10;;;;;;;14.92;91.31;102342.31;10520790;28;20040;-63
2021/06/07 01:24:43;;;;;;;0.10;0.10;;;;;;;14.93;91.49;102346.66;10493562;28;20061;-63
2021/06/07 01:29:44;;;;;;;0.10;0.10;;;;;;;14.92;91.52;102353.03;10516368;28;20068;-63
2021/06/07 01:34:44;;;;;;;0.10;0.10;;;;;;;14.92;91.83;102347.69;10505692;28;20107;-63
2021/06/07 01:39:44;;;;;;;0.10;0.10;;;;;;;14.93;91.48;102343.16;10508742;28;20046;-62
2021/06/07 01:44:45;;;;;;;0.10;0.10;;;;;;;14.91;91.72;102343.28;10516096;28;20471;-63
2021/06/07 01:49:47;;;;;;;0.10;0.10;;;;;;;14.86;92.03;102340.19;10513603;28;20483;-62
2021/06/07 01:54:48;;;;;;;0.10;0.10;;;;;;;14.82;91.98;102349.56;10513005;28;20467;-63
2021/06/07 01:59:48;;;;;;;0.10;0.10;;;;;;;14.79;92.47;102333.75;10518761;28;20028;-63
2021/06/07 02:04:49;;;;;;;0.10;0.10;;;;;;;14.80;92.63;102340.81;10515664;28;20020;-63
2021/06/07 02:09:49;;;;;;;0.10;0.10;;;;;;;14.83;92.45;102335.13;10513298;28;20262;-62
2021/06/07 02:14:49;;;;;;;0.10;0.10;;;;;;;14.85;92.56;102333.16;10511862;28;20085;-61
2021/06/07 02:19:50;;;;;;;0.10;0.10;;;;;;;14.87;92.15;102336.53;10517592;28;20036;-62
2021/06/07 02:24:50;;;;;;;0.00;0.00;;;;;;;14.90;92.10;102332.72;10497988;28;20012;-62
2021/06/07 02:29:50;;;;;;;0.10;0.10;;;;;;;14.88;92.19;102332.03;10517445;28;20034;-61
2021/06/07 02:34:51;;;;;;;0.10;0.10;;;;;;;14.86;91.92;102332.16;10500047;28;20020;-62
2021/06/07 02:39:51;;;;;;;0.10;0.10;;;;;;;14.89;92.35;102336.38;10496196;28;20028;-63
2021/06/07 02:44:52;;;;;;;0.10;0.10;;;;;;;14.88;92.29;102337.38;10498289;28;20263;-63
2021/06/07 02:49:52;;;;;;;0.10;0.10;;;;;;;14.88;92.29;102335.53;10519852;28;20023;-62
2021/06/07 02:54:52;;;;;;;0.00;0.00;;;;;;;14.88;92.50;102332.84;10508514;28;20408;-62
2021/06/07 02:59:53;;;;;;;0.10;0.10;;;;;;;14.88;92.63;102334.69;10516984;28;20111;-62
2021/06/07 03:04:53;;;;;;;0.10;0.10;;;;;;;14.86;92.67;102331.31;10511197;28;20368;-62
2021/06/07 03:09:53;;;;;;;0.10;0.10;;;;;;;14.84;92.66;102344.91;10516189;28;20086;-62
2021/06/07 03:14:53;;;;;;;0.10;0.10;;;;;;;14.85;92.30;102333.16;10516247;28;20370;-62
2021/06/07 03:19:54;;;;;;;0.10;0.10;;;;;;;14.86;92.23;102344.72;10514456;28;20040;-62
2021/06/07 03:24:54;;;;;;;0.10;0.10;;;;;;;14.87;92.31;102335.72;10501493;28;20016;-62
2021/06/07 03:29:55;;;;;;;0.10;0.10;;;;;;;14.85;92.60;102338.53;10498312;28;20027;-63
2021/06/07 03:34:55;;;;;;;0.10;0.10;;;;;;;14.85;92.32;102338.53;10527342;28;20016;-62
2021/06/07 03:39:55;;;;;;;0.10;0.10;;;;;;;14.86;92.30;102340.19;10503459;28;20020;-63
2021/06/07 03:44:56;;;;;;;0.10;0.10;;;;;;;14.85;92.44;102338.53;10525181;28;20382;-62
2021/06/07 03:49:56;;;;;;;0.10;0.10;;;;;;;14.89;92.33;102331.00;10518611;28;20021;-62
2021/06/07 03:54:56;;;;;;;0.10;0.10;;;;;;;14.92;92.26;102339.63;10521441;28;20017;-63
2021/06/07 03:59:57;;;;;;;0.10;0.10;;;;;;;14.98;92.48;102338.19;10511664;28;20509;-61
2021/06/07 04:04:57;;;;;;;0.10;0.10;;;;;;;15.02;92.30;102333.34;10508027;28;20546;-62
2021/06/07 04:09:58;;;;;;;0.10;0.10;;;;;;;15.02;92.03;102338.72;10517343;28;20285;-62
2021/06/07 04:14:58;;;;;;;0.10;0.10;;;;;;;15.02;91.84;102339.56;10518174;28;20024;-62
2021/06/07 04:19:58;;;;;;;0.10;0.10;;;;;;;14.99;92.11;102339.84;10517896;28;20078;-62
2021/06/07 04:24:59;;;;;;;0.10;0.10;;;;;;;15.00;92.05;102349.59;10522387;28;20086;-63
2021/06/07 04:29:59;;;;;;;0.10;0.10;;;;;;;15.01;91.79;102335.19;10529710;28;20028;-63
2021/06/07 04:35:00;;;;;;;0.10;0.10;;;;;;;15.05;91.96;102341.09;10515864;28;20056;-62
2021/06/07 04:40:01;;;;;;;0.10;0.10;;;;;;;15.09;91.56;102339.78;10525834;28;20032;-63
2021/06/07 04:45:03;;;;;;;0.10;0.10;;;;;;;15.15;91.72;102344.53;10523473;28;20444;-63
2021/06/07 04:50:07;;;;;;;0.10;0.10;;;;;;;15.18;91.45;102346.91;10524221;28;20273;-63
2021/06/07 04:55:08;;;;;;;0.10;0.10;;;;;;;15.15;91.41;102345.41;10527357;28;20107;-63
2021/06/07 05:00:09;;;;;;;0.10;0.10;;;;;;;15.17;91.06;102345.25;10515122;28;20046;-63
2021/06/07 05:05:09;;;;;;;0.10;0.10;;;;;;;15.19;91.57;102348.63;10512235;28;20085;-62
2021/06/07 05:10:11;;;;;;;0.10;0.10;;;;;;;15.22;91.52;102344.78;10518159;28;20112;-62
2021/06/07 05:15:13;;;;;;;0.10;0.10;;;;;;;15.27;91.45;102347.84;10515718;28;20069;-63
2021/06/07 05:20:18;;;;;;;0.10;0.10;;;;;;;15.33;91.19;102348.09;10506399;28;20510;-63
2021/06/07 05:25:21;;;;;;;0.10;0.10;;;;;;;15.39;91.25;102339.41;10530073;28;20036;-63
2021/06/07 05:30:24;;;;;;;0.10;0.10;;;;;;;15.49;90.98;102349.22;10514275;28;20111;-63
2021/06/07 05:35:28;;;;;;;0.10;0.10;;;;;;;15.56;91.02;102361.91;10511585;28;20058;-63
2021/06/07 05:40:29;;;;;;;0.10;0.10;;;;;;;15.68;90.71;102356.28;10513615;28;20122;-63
2021/06/07 05:45:30;;;;;;;0.10;0.10;;;;;;;15.70;90.16;102354.31;10533937;28;20455;-63
2021/06/07 05:50:33;;;;;;;0.10;0.10;;;;;;;15.85;90.40;102360.78;10534097;28;20016;-63
2021/06/07 05:55:39;;;;;;;0.10;0.10;;;;;;;16.05;90.30;102354.22;10534472;28;20028;-63
2021/06/07 06:00:43;;;;;;;0.10;0.10;;;;;;;16.22;89.06;102362.41;10518951;28;20016;-63
2021/06/07 06:05:44;;;;;;;0.10;0.10;;;;;;;16.34;88.94;102361.13;10521810;28;20024;-62
2021/06/07 06:10:44;;;;;;;0.10;0.10;;;;;;;16.42;88.89;102363.00;10508841;28;20050;-63
2021/06/07 06:15:44;;;;;;;0.10;0.10;;;;;;;16.51;88.44;102364.72;10513116;28;20012;-63
2021/06/07 06:20:45;;;;;;;0.10;0.10;;;;;;;16.55;88.71;102358.06;10511712;28;20328;-63
2021/06/07 06:25:45;;;;;;;0.10;0.10;;;;;;;16.52;88.32;102364.59;10520625;28;20348;-63
2021/06/07 06:30:46;;;;;;;0.10;0.10;;;;;;;16.53;88.66;102365.44;10512087;28;20035;-63
2021/06/07 06:35:46;;;;;;;0.10;0.10;;;;;;;16.52;89.10;102371.78;10507385;28;20041;-63
2021/06/07 06:40:47;;;;;;;0.03;0.03;;;;;;;16.54;88.92;102364.41;10506158;28;20274;-63
2021/06/07 06:45:49;;;;;;;0.10;0.10;;;;;;;16.59;89.06;102372.00;10523711;28;20459;-62
2021/06/07 06:50:49;;;;;;;0.10;0.10;;;;;;;16.63;88.90;102370.66;10514232;28;20031;-63
2021/06/07 06:55:50;;;;;;;0.10;0.10;;;;;;;16.66;88.92;102371.19;10516270;28;20020;-63
2021/06/07 07:00:51;;;;;;;0.10;0.10;;;;;;;16.61;89.28;102375.34;10504830;28;20035;-63
2021/06/07 07:05:51;;;;;;;0.10;0.10;;;;;;;16.65;89.42;102396.41;10516648;28;20016;-63
2021/06/07 07:10:53;;;;;;;0.10;0.10;;;;;;;16.69;89.51;102394.22;10531840;28;20364;-63
2021/06/07 07:15:53;;;;;;;0.10;0.10;;;;;;;16.76;90.28;102392.63;10532051;28;20016;-63
2021/06/07 07:20:53;;;;;;;0.10;0.10;;;;;;;16.80;89.76;102393.97;10516248;28;20453;-63
2021/06/07 07:25:54;;;;;;;0.10;0.10;;;;;;;16.90;89.83;102401.91;10491993;28;20445;-63
2021/06/07 07:30:55;;;;;;;0.10;0.10;;;;;;;16.97;89.60;102400.28;10491684;28;20035;-63
2021/06/07 07:35:56;;;;;;;0.10;0.10;;;;;;;17.02;89.48;102403.34;10493189;28;20382;-63
2021/06/07 07:40:56;;;;;;;0.10;0.10;;;;;;;17.16;88.82;102404.53;10508390;28;20031;-63
2021/06/07 07:45:56;;;;;;;0.10;0.10;;;;;;;17.19;87.77;102396.97;10514433;28;20142;-63
2021/06/07 07:50:57;;;;;;;0.07;0.07;;;;;;;17.22;88.41;102405.72;10502068;28;20020;-63
2021/06/07 07:55:57;;;;;;;0.10;0.10;;;;;;;17.23;87.97;102407.44;10489512;28;20796;-63
2021/06/07 08:00:58;;;;;;;0.10;0.10;;;;;;;17.13;88.67;102405.72;10525082;28;20082;-63
2021/06/07 08:06:00;;;;;;;0.10;0.10;;;;;;;17.04;88.50;102406.69;10516187;28;20383;-63
2021/06/07 08:11:00;;;;;;;0.10;0.10;;;;;;;17.00;88.07;102402.63;10501604;28;20016;-63
2021/06/07 08:16:01;;;;;;;0.10;0.10;;;;;;;17.07;87.98;102408.19;10509958;28;20021;-63
2021/06/07 08:21:01;;;;;;;0.10;0.10;;;;;;;17.20;87.35;102408.59;10523025;28;20040;-63
2021/06/07 08:26:01;;;;;;;0.10;0.10;;;;;;;17.27;87.30;102398.84;10523047;28;20038;-63
2021/06/07 08:31:02;;;;;;;0.10;0.10;;;;;;;17.28;87.38;102405.94;10513851;28;20017;-63
2021/06/07 08:36:06;;;;;;;0.10;0.10;;;;;;;17.28;88.13;102407.75;10514512;28;20021;-63
2021/06/07 08:41:09;;;;;;;0.10;0.10;;;;;;;17.35;87.64;102411.47;10510002;28;20027;-63
2021/06/07 08:46:10;;;;;;;0.10;0.10;;;;;;;17.35;86.94;102411.47;10520409;28;20024;-63
2021/06/07 08:51:11;;;;;;;0.10;0.10;;;;;;;17.32;86.84;102411.81;10504373;28;20495;-63
2021/06/07 08:56:11;;;;;;;0.10;0.10;;;;;;;17.37;86.75;102414.88;10513088;28;20020;-63
2021/06/07 09:01:11;;;;;;;0.00;0.00;;;;;;;17.39;86.12;102412.81;10511202;28;20047;-63
2021/06/07 09:06:13;;;;;;;0.10;0.10;;;;;;;17.42;85.89;102415.19;10523547;28;20015;-63
2021/06/07 09:11:17;;;;;;;0.00;0.00;;;;;;;17.50;85.19;102417.91;10504990;28;20028;-62
2021/06/07 09:16:17;;;;;;;0.10;0.10;;;;;;;17.59;85.65;102410.66;10515198;28;20016;-63
2021/06/07 09:21:24;;;;;;;0.10;0.10;;;;;;;17.69;85.50;102407.84;10513378;28;20503;-63
2021/06/07 09:26:35;;;;;;;0.10;0.10;;;;;;;17.76;84.95;102414.22;10514552;28;20560;-63
2021/06/07 09:31:38;;;;;;;0.10;0.10;;;;;;;17.80;84.15;102416.47;10512519;28;20020;-63
2021/06/07 09:36:43;;;;;;;0.10;0.10;;;;;;;17.77;84.80;102421.28;10503484;28;20017;-63
2021/06/07 09:41:54;;;;;;;0.10;0.10;;;;;;;17.74;84.65;102413.53;10523402;28;20030;-63
2021/06/07 09:47:20;;;;;;;0.10;0.10;;;;;;;17.65;84.52;102418.91;10517747;28;20383;-63
2021/06/07 09:52:25;;;;;;;0.10;0.10;;;;;;;17.56;84.36;102419.09;10490864;28;20558;-63
2021/06/07 09:57:51;;;;;;;0.00;0.00;;;;;;;17.46;85.12;102423.81;10497250;28;20365;-63
2021/06/07 10:02:52;;;;;;;0.10;0.10;;;;;;;17.37;85.00;102425.63;10530175;28;20032;-63
2021/06/07 10:07:53;;;;;;;0.10;0.10;;;;;;;17.32;85.11;102425.28;10502336;28;20547;-63
2021/06/07 10:13:04;;;;;;;0.20;0.20;;;;;;;17.30;84.96;102424.59;10516663;28;20441;-63
2021/06/07 10:18:09;;;;;;;0.10;0.10;;;;;;;17.31;85.09;102426.31;10512209;28;20032;-63
2021/06/07 10:23:09;;;;;;;0.10;0.10;;;;;;;17.35;84.88;102428.47;10532299;28;20055;-63
2021/06/07 10:28:10;;;;;;;0.10;0.10;;;;;;;17.35;85.16;102431.19;10535457;28;20027;-63
2021/06/07 10:33:25;;;;;;;0.10;0.10;;;;;;;17.38;84.85;102427.31;10534840;28;20019;-63
2021/06/07 10:38:27;;;;;;;0.10;0.10;;;;;;;17.39;84.70;102423.59;10534567;28;20286;-63
2021/06/07 10:43:42;;;;;;;0.10;0.10;;;;;;;17.38;84.33;102424.63;10534829;28;20020;-63
2021/06/07 10:48:45;;;;;;;0.10;0.10;;;;;;;17.50;84.44;102431.38;10534803;28;20016;-63
2021/06/07 10:53:46;;;;;;;0.10;0.10;;;;;;;17.77;83.98;102434.75;10517780;28;20023;-63
2021/06/07 10:58:57;;;;;;;0.10;0.10;;;;;;;18.15;83.14;102435.13;10499948;28;20028;-63
2021/06/07 11:03:59;;;;;;;0.10;0.10;;;;;;;18.31;82.77;102435.13;10508883;28;20067;-63
2021/06/07 11:09:09;;;;;;;0.10;0.10;;;;;;;18.47;81.39;102428.84;10497860;28;20082;-63
2021/06/07 11:14:09;;;;;;;0.10;0.10;;;;;;;18.60;81.13;102439.94;10499728;28;20020;-63
2021/06/07 11:19:10;;;;;;;0.10;0.10;;;;;;;18.59;80.16;102434.69;10518469;28;20503;-63
2021/06/07 11:24:32;;;;;;;0.10;0.10;;;;;;;18.57;80.39;102440.28;10518067;28;20444;-63
2021/06/07 11:29:33;;;;;;;0.10;0.10;;;;;;;18.54;80.89;102436.06;10507163;28;20021;-63
2021/06/07 11:34:45;;;;;;;0.10;0.10;;;;;;;18.57;79.59;102434.06;10512068;28;20501;-64
2021/06/07 11:39:49;;;;;;;0.10;0.10;;;;;;;18.72;80.44;102433.16;10516137;28;20123;-63
2021/06/07 11:44:51;;;;;;;;;;;;;;;18.96;80.28;102431.41;10502914;28;20036;-64
2021/06/07 11:50:00;;;;;;;0.10;0.10;;;;;;;19.35;79.39;102428.69;10513775;28;20400;-64
2021/06/07 11:55:18;;;;;;;0.10;0.10;;;;;;;19.74;77.24;102422.34;10538772;28;20027;-64
2021/06/07 12:00:20;;;;;;;0.10;0.10;;;;;;;19.85;75.90;102424.63;10507318;28;20031;-64
2021/06/07 12:05:20;;;;;;;0.10;0.10;;;;;;;20.06;75.57;102420.38;10529478;28;20047;-64
2021/06/07 12:10:21;;;;;;;0.10;0.10;;;;;;;20.14;74.82;102417.59;10537522;28;20055;-64
2021/06/07 12:15:21;;;;;;;0.10;0.10;;;;;;;20.48;74.78;102418.97;10537693;28;20025;-64
2021/06/07 12:20:22;;;;;;;0.10;0.10;;;;;;;21.12;74.23;102405.66;10517679;28;20394;-62
2021/06/07 12:30:26;;;;;;;;;;;;;;;21.17;71.24;102408.63;10523247;28;20482;-64
2021/06/07 12:35:30;;;;;;;0.10;0.10;;;;;;;21.14;72.15;102403.56;10528061;28;19918;-62
2021/06/07 12:40:48;;;;;;;0.10;0.10;;;;;;;21.25;72.17;102400.38;10536781;28;20493;-64
2021/06/07 12:46:15;;;;;;;0.10;0.10;;;;;;;21.45;70.86;102403.31;10517399;28;20059;-64
2021/06/07 12:51:21;;;;;;;0.10;0.10;;;;;;;21.19;69.80;102403.00;10507147;28;20041;-62
2021/06/07 12:56:24;;;;;;;0.10;0.10;;;;;;;21.30;70.19;102397.09;10505165;28;20020;-64
2021/06/07 13:01:40;;;;;;;0.10;0.10;;;;;;;21.42;70.17;102397.47;10515564;28;20032;-64
2021/06/07 13:06:46;;;;;;;0.10;0.10;;;;;;;21.55;70.97;102397.56;10513152;28;20491;-64
2021/06/07 13:11:51;;;;;;;0.10;0.10;;;;;;;21.49;69.61;102401.06;10523262;28;20028;-64
2021/06/07 13:16:57;;;;;;;0.00;0.00;;;;;;;21.24;70.40;102403.28;10488893;28;20140;-64
2021/06/07 13:22:00;;;;;;;0.10;0.10;;;;;;;21.20;71.14;102396.56;10525719;28;20032;-63
2021/06/07 13:27:20;;;;;;;0.10;0.10;;;;;;;21.47;70.91;102392.31;10506369;28;20513;-64
2021/06/07 13:32:29;;;;;;;0.10;0.10;;;;;;;21.63;71.04;102397.44;10495326;28;20059;-64
2021/06/07 13:37:44;;;;;;;0.00;0.00;;;;;;;21.98;70.70;102389.41;10495687;28;20595;-64
2021/06/07 13:42:52;;;;;;;0.10;0.10;;;;;;;22.19;68.17;102393.13;10522726;28;20471;-63
2021/06/07 13:47:55;;;;;;;0.10;0.10;;;;;;;22.31;68.07;102389.66;10495019;28;20067;-61
2021/06/07 13:53:07;;;;;;;0.10;0.10;;;;;;;22.50;68.95;102396.25;10506263;28;20111;-64
2021/06/07 13:58:13;;;;;;;0.10;0.10;;;;;;;22.72;67.96;102391.56;10494459;28;20108;-64
2021/06/07 14:03:19;;;;;;;0.10;0.10;;;;;;;22.54;66.68;102385.81;10494280;28;20024;-64
2021/06/07 14:08:34;;;;;;;0.10;0.10;;;;;;;22.32;68.14;102391.34;10494511;28;20012;-64
2021/06/07 14:13:35;;;;;;;0.10;0.10;;;;;;;22.15;69.72;102388.06;10492190;28;20089;-64
2021/06/07 14:18:37;;;;;;;0.00;0.00;;;;;;;22.11;69.62;102392.22;10520281;28;20035;-64
2021/06/07 14:28:56;;;;;;;0.10;0.10;;;;;;;21.76;70.36;102377.75;10494100;28;20467;-64
2021/06/07 14:33:57;;;;;;;0.10;0.10;;;;;;;21.80;70.55;102378.19;10502202;28;20016;-64
2021/06/07 14:38:57;;;;;;;0.10;0.10;;;;;;;21.91;70.59;102369.53;10535133;28;20760;-64
2021/06/07 14:43:58;;;;;;;0.10;0.10;;;;;;;21.93;69.97;102360.16;10530240;28;20029;-62
2021/06/07 14:48:58;;;;;;;0.10;0.10;;;;;;;21.97;70.26;102370.63;10493183;28;20092;-63
2021/06/07 14:53:58;;;;;;;0.08;0.08;;;;;;;22.02;70.54;102358.13;10506859;28;20468;-62
2021/06/07 14:58:59;;;;;;;0.10;0.10;;;;;;;22.03;70.03;102362.50;10495004;28;20021;-64
2021/06/07 15:03:59;;;;;;;0.10;0.10;;;;;;;21.86;68.97;102350.28;10498385;28;20030;-63
2021/06/07 15:08:59;;;;;;;0.10;0.10;;;;;;;21.72;71.01;102351.22;10535131;28;20020;-64
2021/06/07 15:14:01;;;;;;;0.10;0.10;;;;;;;21.57;70.19;102349.41;10535122;28;20458;-63
2021/06/07 15:19:05;;;;;;;0.10;0.10;;;;;;;21.43;70.67;102353.88;10504011;28;20036;-64
2021/06/07 15:24:06;;;;;;;0.10;0.10;;;;;;;21.31;71.08;102349.97;10536368;28;20108;-64
2021/06/07 15:29:06;;;;;;;0.10;0.10;;;;;;;21.21;71.58;102341.34;10532806;28;20120;-64
2021/06/07 15:34:06;;;;;;;0.10;0.10;;;;;;;21.16;72.37;102343.78;10500162;28;20025;-64
2021/06/07 15:39:06;;;;;;;0.10;0.10;;;;;;;21.15;72.64;102337.53;10523811;28;20024;-64
2021/06/07 15:44:07;;;;;;;0.10;0.10;;;;;;;21.17;73.45;102342.75;10522618;28;20032;-64
2021/06/07 15:49:07;;;;;;;0.07;0.07;;;;;;;21.19;72.60;102341.53;10501999;28;20025;-64
2021/06/07 15:54:08;;;;;;;0.10;0.10;;;;;;;21.05;71.88;102323.44;10508443;28;20467;-64
2021/06/07 15:59:08;;;;;;;0.10;0.10;;;;;;;20.93;71.81;102320.41;10526536;28;20457;-64
2021/06/07 16:04:09;;;;;;;0.10;0.10;;;;;;;20.89;73.47;102324.53;10510854;28;20016;-63
2021/06/07 16:09:09;;;;;;;0.10;0.10;;;;;;;20.82;71.73;102329.03;10509022;28;20251;-63
2021/06/07 16:14:09;;;;;;;0.10;0.10;;;;;;;20.69;72.54;102321.59;10510179;28;20158;-64
2021/06/07 16:19:13;;;;;;;0.10;0.10;;;;;;;20.57;73.49;102320.41;10498189;28;20097;-63
2021/06/07 16:24:13;;;;;;;;;;;;;;;20.51;73.90;102311.16;10536767;28;20028;-64
2021/06/07 16:29:15;;;;;;;0.10;0.10;;;;;;;20.46;73.72;102318.16;10535217;28;19912;-64
2021/06/07 16:34:16;;;;;;;0.00;0.00;;;;;;;20.49;74.06;102318.63;10498976;28;20040;-64
2021/06/07 16:39:16;;;;;;;0.10;0.10;;;;;;;20.52;74.28;102315.56;10504211;28;20441;-64
2021/06/07 16:44:20;;;;;;;0.10;0.10;;;;;;;20.53;73.56;102309.09;10483542;28;20020;-64
2021/06/07 16:49:21;;;;;;;0.00;0.00;;;;;;;20.51;74.94;102313.03;10539106;28;20059;-64
2021/06/07 16:54:21;;;;;;;0.10;0.10;;;;;;;20.45;73.94;102306.50;10525337;28;20055;-64
2021/06/07 16:59:21;;;;;;;0.10;0.10;;;;;;;20.43;74.93;102315.84;10533767;28;20395;-63
2021/06/07 17:04:21;;;;;;;0.10;0.10;;;;;;;20.33;74.50;102307.97;10512206;28;20442;-64
2021/06/07 17:09:22;;;;;;;0.10;0.10;;;;;;;20.23;74.76;102319.09;10538035;28;20042;-64
2021/06/07 17:14:38;;;;;;;0.10;0.10;;;;;;;20.04;75.19;102312.38;10507245;28;20020;-64
2021/06/07 17:19:39;;;;;;;0.10;0.10;;;;;;;19.95;74.88;102320.75;10526284;28;20116;-64
2021/06/07 17:24:39;;;;;;;0.10;0.10;;;;;;;19.84;75.60;102324.78;10524973;28;20017;-64
2021/06/07 17:29:40;;;;;;;0.10;0.10;;;;;;;19.69;75.80;102313.91;10522328;28;20028;-64
2021/06/07 17:34:41;;;;;;;0.10;0.10;;;;;;;19.59;76.32;102321.41;10537561;28;20399;-64
2021/06/07 17:39:42;;;;;;;0.10;0.10;;;;;;;19.50;76.88;102317.09;10519708;28;20426;-64
2021/06/07 17:44:42;;;;;;;0.10;0.10;;;;;;;19.48;76.83;102316.44;10537227;28;20023;-64
2021/06/07 17:49:43;;;;;;;0.10;0.10;;;;;;;19.45;76.53;102318.47;10536077;28;20474;-64
2021/06/07 17:54:43;;;;;;;0.10;0.10;;;;;;;19.41;76.52;102316.34;10535189;28;20566;-64
2021/06/07 17:59:44;;;;;;;0.10;0.10;;;;;;;19.33;76.54;102321.81;10503063;28;20078;-64
2021/06/07 18:04:44;;;;;;;0.10;0.10;;;;;;;19.25;76.46;102317.28;10490893;28;20029;-63
2021/06/07 18:09:44;;;;;;;0.10;0.10;;;;;;;19.14;76.97;102309.59;10518553;28;20023;-64
2021/06/07 18:14:45;;;;;;;0.10;0.10;;;;;;;19.04;77.30;102304.44;10535848;28;20278;-64
2021/06/07 18:19:45;;;;;;;0.10;0.10;;;;;;;18.97;77.77;102312.44;10535605;28;20032;-64
2021/06/07 18:24:46;;;;;;;0.10;0.10;;;;;;;18.96;77.95;102313.44;10521481;28;20020;-64
2021/06/07 18:29:46;;;;;;;0.05;0.05;;;;;;;18.93;77.78;102316.50;10517871;28;20379;-63
2021/06/07 18:34:47;;;;;;;0.00;0.00;;;;;;;18.86;78.13;102325.50;10535607;28;20050;-63
2021/06/07 18:39:47;;;;;;;0.10;0.10;;;;;;;18.71;78.47;102334.31;10518734;28;20029;-63
2021/06/07 18:44:48;;;;;;;0.10;0.10;;;;;;;18.59;79.20;102324.06;10492915;28;20115;-63
2021/06/07 18:49:48;;;;;;;0.10;0.10;;;;;;;18.48;79.60;102333.41;10501544;28;20050;-63
2021/06/07 18:54:50;;;;;;;0.10;0.10;;;;;;;18.35;80.00;102333.94;10526079;28;20027;-63
2021/06/07 18:59:50;;;;;;;0.10;0.10;;;;;;;18.22;80.56;102339.06;10506189;28;20059;-61
2021/06/07 19:04:51;;;;;;;0.10;0.10;;;;;;;18.11;80.96;102332.16;10534386;28;20283;-63
2021/06/07 19:09:52;;;;;;;0.03;0.03;;;;;;;17.97;81.14;102331.00;10534249;28;20026;-63
2021/06/07 19:14:54;;;;;;;0.10;0.10;;;;;;;17.87;81.88;102335.75;10515875;28;20057;-63
2021/06/07 19:19:55;;;;;;;0.10;0.10;;;;;;;17.74;82.45;102330.84;10504276;28;20031;-65
2021/06/07 19:24:55;;;;;;;0.10;0.10;;;;;;;17.62;82.74;102340.28;10518403;28;20008;-65
2021/06/07 19:29:56;;;;;;;0.10;0.10;;;;;;;17.51;82.54;102341.47;10520970;28;20025;-65
2021/06/07 19:34:56;;;;;;;0.10;0.10;;;;;;;17.43;83.13;102349.56;10555437;22;20056;-60
2021/06/07 19:39:56;;;;;;;0.10;0.10;;;;;;;17.35;83.19;102349.53;10571435;28;20034;-57
2021/06/07 19:44:57;;;;;;;0.10;0.10;;;;;;;17.31;82.80;102361.66;10574311;28;20028;-61
2021/06/07 19:49:58;;;;;;;0.10;0.10;;;;;;;17.25;83.13;102363.16;10569505;28;20016;-59
2021/06/07 19:54:58;;;;;;;0.10;0.10;;;;;;;17.22;83.04;102368.03;10567981;28;20022;-59
2021/06/07 20:00:04;;;;;;;0.10;0.10;;;;;;;17.17;82.81;102372.06;10555236;28;20032;-61
2021/06/07 20:05:05;;;;;;;0.10;0.10;;;;;;;17.14;83.26;102382.34;10542873;28;20016;-60
2021/06/07 20:10:07;;;;;;;0.10;0.10;;;;;;;17.11;83.38;102374.59;10528513;28;20463;-60
2021/06/07 20:15:09;;;;;;;0.10;0.10;;;;;;;17.09;83.38;102390.06;10534527;28;20375;-60
2021/06/07 20:20:09;;;;;;;0.10;0.10;;;;;;;17.08;83.65;102381.13;10535575;28;20123;-59
2021/06/07 20:25:10;;;;;;;0.10;0.10;;;;;;;17.06;83.80;102390.38;10536577;28;20456;-60
2021/06/07 20:30:12;;;;;;;0.10;0.10;;;;;;;17.07;83.60;102383.97;10571935;27;20020;-60
2021/06/07 20:35:14;;;;;;;0.10;0.10;;;;;;;17.05;83.95;102394.94;10565419;28;20431;-58
2021/06/07 20:40:18;;;;;;;0.10;0.10;;;;;;;17.00;84.04;102402.63;10575710;28;20070;-61
2021/06/07 20:45:22;;;;;;;0.10;0.10;;;;;;;16.92;84.04;102392.69;10577257;28;20012;-60
2021/06/07 20:50:22;;;;;;;0.10;0.10;;;;;;;16.85;84.30;102394.34;10576652;28;20043;-60
2021/06/07 20:55:25;;;;;;;0.10;0.10;;;;;;;16.80;84.78;102388.59;10576994;28;20055;-60
2021/06/07 21:00:27;;;;;;;0.10;0.10;;;;;;;16.78;84.82;102392.47;10544351;28;20032;-62
2021/06/07 21:05:27;;;;;;;0.10;0.10;;;;;;;16.72;84.83;102397.44;10507858;28;20046;-60
2021/06/07 21:10:29;;;;;;;0.10;0.10;;;;;;;16.70;85.30;102396.78;10534371;28;20034;-60
2021/06/07 21:15:30;;;;;;;0.10;0.10;;;;;;;16.67;85.86;102402.47;10536474;28;20136;-60
2021/06/07 21:20:30;;;;;;;0.10;0.10;;;;;;;16.66;85.70;102408.00;10566046;28;20099;-60
2021/06/07 21:25:30;;;;;;;0.10;0.10;;;;;;;16.63;85.96;102401.09;10536858;28;20363;-61
2021/06/07 21:30:31;;;;;;;0.10;0.10;;;;;;;16.58;86.03;102398.06;10533236;28;20020;-60
2021/06/07 21:35:31;;;;;;;0.10;0.10;;;;;;;16.53;86.37;102405.78;10547021;28;20353;-63
2021/06/07 21:40:31;;;;;;;0.10;0.10;;;;;;;16.48;86.51;102410.78;10575099;28;20020;-61
2021/06/07 21:45:32;;;;;;;0.10;0.10;;;;;;;16.40;86.81;102408.03;10567967;28;20019;-61
2021/06/07 21:50:32;;;;;;;0.10;0.10;;;;;;;16.34;87.01;102406.81;10569801;28;20043;-60
2021/06/07 21:55:33;;;;;;;0.10;0.10;;;;;;;16.28;86.48;102415.53;10533452;28;20028;-58
2021/06/07 22:00:33;;;;;;;0.10;0.10;;;;;;;16.19;86.72;102414.63;10543316;28;20039;-60
2021/06/07 22:05:33;;;;;;;0.10;0.10;;;;;;;16.11;87.00;102416.41;10533265;28;20028;-60
2021/06/07 22:10:34;;;;;;;0.10;0.10;;;;;;;16.08;87.01;102420.25;10532485;28;20125;-60
2021/06/07 22:15:34;;;;;;;0.10;0.10;;;;;;;16.06;87.03;102422.28;10534645;28;20470;-60
2021/06/07 22:20:36;;;;;;;0.10;0.10;;;;;;;16.05;87.39;102420.56;10534797;28;20020;-60
2021/06/07 22:25:40;;;;;;;0.10;0.10;;;;;;;16.04;86.88;102416.22;10532220;28;20023;-61
2021/06/07 22:30:41;;;;;;;0.10;0.10;;;;;;;16.07;86.67;102427.47;10531688;28;20394;-59
2021/06/07 22:35:41;;;;;;;0.10;0.10;;;;;;;16.10;86.33;102420.13;10541953;28;20024;-60
2021/06/07 22:40:42;;;;;;;0.10;0.10;;;;;;;16.10;86.56;102420.94;10531864;28;20023;-60
2021/06/07 22:45:42;;;;;;;0.10;0.10;;;;;;;16.09;86.48;102424.66;10536589;28;20022;-61
2021/06/07 22:50:42;;;;;;;0.00;0.00;;;;;;;16.09;85.93;102427.34;10569651;28;20261;-59
2021/06/07 22:55:43;;;;;;;0.10;0.10;;;;;;;16.07;85.76;102424.78;10573230;28;20463;-59
2021/06/07 23:00:44;;;;;;;0.10;0.10;;;;;;;16.05;86.03;102434.84;10571103;28;20385;-60
2021/06/07 23:05:44;;;;;;;0.10;0.10;;;;;;;15.99;86.04;102431.94;10567793;28;20400;-59
2021/06/07 23:10:44;;;;;;;0.00;0.00;;;;;;;15.97;85.66;102436.63;10568807;28;20477;-60
2021/06/07 23:15:45;;;;;;;0.10;0.10;;;;;;;15.91;85.54;102445.31;10537009;28;20011;-60
2021/06/07 23:20:46;;;;;;;0.10;0.10;;;;;;;15.84;85.29;102443.25;10530346;28;20461;-62
2021/06/07 23:25:46;;;;;;;0.10;0.10;;;;;;;15.77;85.20;102441.34;10529995;28;20089;-59